< Typhoon 199107 1991 Season Typhoon 199109 >
Typhoon 199108 (BRENDAN)
General InformationTrack Information on Google MapsDetailed Wind InformationList of All Images || Disaster Info.ResourceGoogle EarthGE AnimationAtom FeedGeoJSON
Detalied Best Track (Time Zone = UTC)
Year Month Day Hour Lat. Long. Pressure (hPa) Wind (kt) Class Image Chart
1991 7 19 06 12.5 133.5 1006 0 2 Image Chart
1991 7 19 12 12.0 132.0 1006 0 2 Image Chart
1991 7 19 18 12.5 130.0 1006 0 2 Image Chart
1991 7 20 00 13.0 129.0 1004 0 2 Image Chart
1991 7 20 06 13.5 128.5 1004 0 2 Image Chart
1991 7 20 12 14.0 127.8 1004 0 2 Image Chart
1991 7 20 18 14.2 127.0 1004 0 2 Image Chart
1991 7 21 00 14.3 126.3 1000 0 2 Image Chart
1991 7 21 06 14.9 125.5 996 35 3 Image Chart
1991 7 21 12 15.7 124.5 990 45 3 Image Chart
1991 7 21 18 16.0 123.8 985 50 4 Image Chart
1991 7 22 00 16.6 123.2 980 60 4 Image Chart
1991 7 22 06 17.4 122.2 980 60 4 Image Chart
1991 7 22 12 18.7 121.2 985 55 4 Image Chart
1991 7 22 18 19.4 119.8 985 55 4 Image Chart
1991 7 23 00 20.0 118.1 985 55 4 Image Chart
1991 7 23 06 20.8 116.5 980 60 4 Image Chart
1991 7 23 12 21.1 114.9 980 60 4 Image Chart
1991 7 23 18 21.3 114.0 980 60 4 Image Chart
1991 7 24 00 22.0 113.2 985 55 4 Image Chart
1991 7 24 06 22.4 112.3 990 45 3 Image Chart
1991 7 24 12 23.0 111.0 998 0 2 Image Chart
1991 7 24 18 24.0 110.0 998 0 2 Image Chart
1991 7 25 00 24.7 109.0 1000 0 2 Image Chart
1991 7 25 06 25.2 108.2 1000 0 2 Image Chart
Japan Meteorological Agency Best Track Data | Correction Date : 1992-01-04
< Typhoon 199107 1991 Season Typhoon 199109 >

Help